SHMÚ vydal meteorologické výstrahy na Vietor na horáchSnehové jazyky a záveje Zobraziť výstrahy

Smogová situácia PM10 - Upozornenie - Jelšava a okolie » Zobraziť

METAR

Letisková meteorologická správa METAR

Meteorologické informácie z ďalších profesionálnych meteorologických staníc SHMÚ zobrazené v tvare zodpovedajúcom pravidlám kódovania správ METAR sú uvedené v položke „METSYN

Informácie o správe METAR

19.01.2018 - 07:00 UTC

METAR LZIB 190700Z 25007KT 9999 FEW048 SCT064 05/00 Q1005 R88/CLRD//
NOSIG=
METAR LZKZ 190700Z 06006KT 360V080 CAVOK M02/M03 Q1003 NOSIG=
METAR LZPP 190700Z 22005KT 160V240 CAVOK 04/M03 Q1005=
METAR LZSL 190700Z VRB02KT 9999 FEW042 M03/M05 Q1004=
METAR LZTT 190700Z 25019KT 7000 -SN DRSN SCT060 M01/M04 Q1000 NOSIG=
METAR LZZI 190700Z 28003KT 240V320 9999 SCT035 BKN053 01/M02 Q1003=

19.01.2018 - 06:30 UTC

METAR LZIB 190630Z 27009KT CAVOK 05/01 Q1005 R88/CLRD// NOSIG=
METAR LZKZ 190630Z 30004KT 240V050 CAVOK M02/M04 Q1002 NOSIG=
METAR LZPP 190630Z 11006KT CAVOK 02/M03 Q1004=
METAR LZSL 190630Z 08003KT 030V120 9999 FEW049 M02/M04 Q1004=
METAR LZTT 190630Z 24018KT 4000 -SN DRSN FEW010 BKN060 M01/M03 Q1000
NOSIG=
METAR LZZI 190630Z VRB02KT 9999 FEW032 BKN056 02/M02 Q1003=

19.01.2018 - 07:00 UTC

METAR LZMC 190700Z 15004KT CAVOK 03/01 Q1006=
METAR LZPW 190700Z 18006KT 9999 FEW004 SCT070 M03/M04
Q1001=

skok na menu ↑


skok na začiatok stránky ↑